Time;durP1;ratioP1;P1;durP2;ratioP2;P2;SDS_P1;SDS_P2;PMS_P1;PMS_P2;Temp;Humidity;BMP_temperature;BMP_pressure;BME280_temperature;BME280_humidity;BME280_pressure;Samples;Min_cycle;Max_cycle;Signal;HPM_P1;HPM_P2
2024/02/13 00:01:40;;;;;;;102.25;23.40;;;;;;;4.45;100.00;97691.47;5026601;28;20030;-62
2024/02/13 00:04:08;;;;;;;45.33;18.30;;;;;;;4.26;100.00;97691.19;5030058;28;20035;-61
2024/02/13 00:06:34;;;;;;;56.45;20.38;;;;;;;4.45;100.00;97694.06;5026013;28;20071;-61
2024/02/13 00:08:59;;;;;;;55.35;18.35;;;;;;;4.22;100.00;97694.53;5032541;28;20528;-63
2024/02/13 00:11:24;;;;;;;48.60;18.90;;;;;;;4.47;100.00;97705.25;5028112;28;20072;-62
2024/02/13 00:13:50;;;;;;;60.05;20.02;;;;;;;4.47;100.00;97700.09;5013593;28;22273;-61
2024/02/13 00:16:20;;;;;;;46.30;17.70;;;;;;;4.49;100.00;97702.72;5028461;28;20037;-62
2024/02/13 00:18:46;;;;;;;91.68;20.85;;;;;;;4.47;100.00;97714.69;5030044;28;20041;-61
2024/02/13 00:21:12;;;;;;;72.45;19.27;;;;;;;4.50;100.00;97710.47;5030300;28;20063;-61
2024/02/13 00:23:38;;;;;;;91.45;21.20;;;;;;;4.58;100.00;97720.88;5028595;28;20032;-60
2024/02/13 00:26:03;;;;;;;39.42;17.15;;;;;;;4.29;100.00;97719.56;5031178;28;20052;-60
2024/02/13 00:28:29;;;;;;;58.83;20.33;;;;;;;4.29;100.00;97729.84;5032564;28;20072;-62
2024/02/13 00:30:56;;;;;;;52.95;19.00;;;;;;;4.41;100.00;97736.03;5030917;28;20048;-63
2024/02/13 00:33:21;;;;;;;50.30;18.05;;;;;;;4.42;100.00;97741.22;5032250;28;20488;-60
2024/02/13 00:35:47;;;;;;;76.45;19.67;;;;;;;4.23;100.00;97734.88;5029567;28;20206;-62
2024/02/13 00:38:15;;;;;;;49.95;19.35;;;;;;;4.10;100.00;97735.50;5032234;28;20025;-61
2024/02/13 00:40:41;;;;;;;69.95;19.50;;;;;;;4.10;100.00;97740.66;5031289;28;20519;-62
2024/02/13 00:43:06;;;;;;;56.35;20.02;;;;;;;4.23;100.00;97741.75;5032237;28;20452;-60
2024/02/13 00:45:31;;;;;;;48.95;19.50;;;;;;;4.23;100.00;97734.03;5031197;28;20132;-60
2024/02/13 00:47:57;;;;;;;59.53;18.52;;;;;;;4.20;100.00;97739.13;5030753;28;20025;-61
2024/02/13 00:50:23;;;;;;;48.38;17.73;;;;;;;4.23;100.00;97744.34;5027580;28;20342;-60
2024/02/13 00:52:50;;;;;;;75.38;19.88;;;;;;;4.18;100.00;97751.97;5031888;28;20025;-61
2024/02/13 00:55:15;;;;;;;56.00;19.52;;;;;;;4.15;100.00;97754.47;5030191;28;20516;-61
2024/02/13 00:57:40;;;;;;;73.15;20.40;;;;;;;4.09;100.00;97767.22;5029564;28;20079;-64
2024/02/13 01:00:10;;;;;;;42.58;17.20;;;;;;;4.16;100.00;97772.53;5032111;28;20029;-61
2024/02/13 01:02:35;;;;;;;88.68;20.17;;;;;;;4.23;100.00;97770.06;5027589;28;20041;-62
2024/02/13 01:05:01;;;;;;;50.88;18.17;;;;;;;4.35;100.00;97777.16;5028161;28;20487;-63
2024/02/13 01:07:26;;;;;;;61.97;18.27;;;;;;;4.34;100.00;97781.41;5027762;28;20460;-62
2024/02/13 01:09:52;;;;;;;121.47;23.70;;;;;;;4.18;100.00;97793.16;5026899;28;20021;-62
2024/02/13 01:12:18;;;;;;;65.90;19.95;;;;;;;4.15;100.00;97793.97;5026509;28;20037;-60
2024/02/13 01:14:43;;;;;;;83.82;22.13;;;;;;;4.35;100.00;97787.44;5026219;28;20393;-64
2024/02/13 01:17:09;;;;;;;76.38;22.10;;;;;;;4.22;100.00;97805.25;5027316;28;20139;-63
2024/02/13 01:19:34;;;;;;;86.22;20.27;;;;;;;4.26;100.00;97804.47;5026227;28;20162;-60
2024/02/13 01:22:00;;;;;;;71.63;20.52;;;;;;;4.19;100.00;97807.75;5007127;28;20107;-62
2024/02/13 01:24:26;;;;;;;71.82;19.75;;;;;;;4.13;100.00;97807.66;5025580;28;20034;-62
2024/02/13 01:26:53;;;;;;;84.50;20.85;;;;;;;4.22;100.00;97810.38;5025852;28;20029;-63
2024/02/13 01:29:19;;;;;;;69.35;19.90;;;;;;;4.33;100.00;97813.16;5009753;28;20021;-61
2024/02/13 01:31:46;;;;;;;95.03;22.77;;;;;;;4.31;100.00;97822.59;5022722;28;20412;-62
2024/02/13 01:34:11;;;;;;;62.80;20.58;;;;;;;4.51;100.00;97820.38;5026070;28;20234;-63
2024/02/13 01:36:37;;;;;;;86.38;22.63;;;;;;;4.61;100.00;97826.56;5021691;28;20041;-61
2024/02/13 01:39:03;;;;;;;61.88;19.55;;;;;;;4.75;100.00;97828.50;5027092;28;20071;-61
2024/02/13 01:41:29;;;;;;;59.40;19.23;;;;;;;4.86;100.00;97828.69;5024466;28;20434;-63
2024/02/13 01:43:55;;;;;;;81.00;21.33;;;;;;;4.85;100.00;97830.41;5025560;28;20036;-62
2024/02/13 01:46:20;;;;;;;60.15;19.50;;;;;;;4.79;100.00;97835.47;5026510;28;20049;-64
2024/02/13 01:48:46;;;;;;;95.70;21.77;;;;;;;4.69;100.00;97831.84;5026701;28;20047;-63
2024/02/13 01:51:15;;;;;;;85.35;20.17;;;;;;;4.55;100.00;97842.78;5005771;28;20033;-63
2024/02/13 01:53:42;;;;;;;87.68;20.17;;;;;;;4.56;100.00;97854.81;5027099;28;20071;-62
2024/02/13 01:56:09;;;;;;;56.75;18.48;;;;;;;4.69;100.00;97855.03;5024533;28;20045;-61
2024/02/13 01:58:38;;;;;;;67.45;20.35;;;;;;;4.86;100.00;97855.31;5029767;28;20033;-62
2024/02/13 02:01:04;;;;;;;62.22;19.58;;;;;;;4.93;100.00;97856.28;5030237;28;20044;-60
2024/02/13 02:03:34;;;;;;;71.85;20.80;;;;;;;4.89;100.00;97863.09;5028973;28;20465;-62
2024/02/13 02:06:00;;;;;;;58.80;20.08;;;;;;;4.89;100.00;97875.13;5028656;28;20041;-64
2024/02/13 02:08:29;;;;;;;68.38;20.45;;;;;;;4.90;100.00;97869.16;5029749;28;21025;-62
2024/02/13 02:10:58;;;;;;;102.95;20.08;;;;;;;4.81;100.00;97878.44;5027823;28;20073;-63
2024/02/13 02:13:27;;;;;;;63.92;19.73;;;;;;;4.64;100.00;97880.69;5030359;28;20340;-61
2024/02/13 02:15:59;;;;;;;86.82;19.73;;;;;;;4.68;100.00;97885.06;5027625;28;20151;-62
2024/02/13 02:18:24;;;;;;;81.72;20.58;;;;;;;4.66;100.00;97889.34;5031441;28;20067;-62
2024/02/13 02:20:50;;;;;;;82.63;21.55;;;;;;;4.69;100.00;97886.78;5009782;28;20083;-62
2024/02/13 02:23:18;;;;;;;84.03;20.75;;;;;;;4.69;100.00;97891.09;5026785;28;20385;-63
2024/02/13 02:25:44;;;;;;;85.95;19.55;;;;;;;4.58;100.00;97896.06;5011986;28;20131;-62
2024/02/13 02:28:10;;;;;;;57.28;18.75;;;;;;;4.39;100.00;97898.25;5028893;28;20121;-63
2024/02/13 02:30:35;;;;;;;83.38;19.58;;;;;;;4.21;100.00;97901.34;5029035;28;20633;-64
2024/02/13 02:33:02;;;;;;;70.70;18.40;;;;;;;4.17;100.00;97905.53;5028813;28;20404;-64
2024/02/13 02:35:27;;;;;;;66.50;18.98;;;;;;;4.02;100.00;97906.09;5028617;28;20045;-63
2024/02/13 02:37:53;;;;;;;101.65;19.98;;;;;;;3.99;100.00;97908.59;5027750;28;20745;-63
2024/02/13 02:40:18;;;;;;;67.38;19.25;;;;;;;4.10;100.00;97911.41;5028245;28;20060;-63
2024/02/13 02:42:49;;;;;;;87.35;20.38;;;;;;;4.28;100.00;97920.34;5027890;28;20043;-61
2024/02/13 02:45:17;;;;;;;62.17;17.95;;;;;;;4.35;100.00;97926.50;5027036;28;20016;-61
2024/02/13 02:47:43;;;;;;;85.85;19.70;;;;;;;4.41;100.00;97926.59;5031134;28;20025;-62
2024/02/13 02:50:11;;;;;;;81.07;20.30;;;;;;;4.43;100.00;97919.81;5027368;28;20456;-61
2024/02/13 02:52:37;;;;;;;58.28;17.67;;;;;;;4.39;100.00;97929.16;5027263;28;20005;-61
2024/02/13 02:55:05;;;;;;;64.45;19.88;;;;;;;4.28;100.00;97926.34;5010578;28;20032;-62
2024/02/13 02:57:32;;;;;;;78.10;20.00;;;;;;;4.06;100.00;97940.50;5030739;28;20076;-62
2024/02/13 02:59:57;;;;;;;69.63;19.67;;;;;;;3.80;100.00;97937.31;5028050;28;20053;-60
2024/02/13 03:02:22;;;;;;;70.75;18.70;;;;;;;3.55;100.00;97934.16;5028187;28;20068;-63
2024/02/13 03:04:49;;;;;;;92.47;19.25;;;;;;;3.43;100.00;97943.34;5029416;28;20022;-59
2024/02/13 03:07:14;;;;;;;58.88;18.35;;;;;;;3.30;100.00;97943.88;5027063;28;20021;-64
2024/02/13 03:09:39;;;;;;;78.35;18.75;;;;;;;3.20;100.00;97947.91;5028417;28;20393;-62
2024/02/13 03:12:05;;;;;;;67.82;18.95;;;;;;;3.09;100.00;97952.78;5028731;28;20134;-62
2024/02/13 03:14:31;;;;;;;65.03;17.55;;;;;;;2.97;100.00;97951.63;5029383;28;20033;-63
2024/02/13 03:16:56;;;;;;;105.47;21.23;;;;;;;2.86;100.00;97961.63;5025995;28;20044;-63
2024/02/13 03:19:21;;;;;;;90.25;20.30;;;;;;;2.81;100.00;97957.19;5027878;28;20104;-61
2024/02/13 03:21:47;;;;;;;95.85;18.85;;;;;;;2.72;100.00;97968.94;5025465;28;20401;-61
2024/02/13 03:24:12;;;;;;;82.03;18.00;;;;;;;2.69;100.00;97968.88;5026094;28;20413;-61
2024/02/13 03:26:37;;;;;;;75.43;18.42;;;;;;;2.58;100.00;97970.25;5027947;28;20037;-61
2024/02/13 03:29:03;;;;;;;68.95;18.25;;;;;;;2.54;100.00;97969.31;5026063;28;20048;-60
2024/02/13 03:31:28;;;;;;;76.32;18.67;;;;;;;2.46;100.00;97975.91;5026636;28;20036;-60
2024/02/13 03:33:54;;;;;;;97.30;18.92;;;;;;;2.39;100.00;97982.56;5025882;28;20338;-61
2024/02/13 03:36:19;;;;;;;74.82;17.65;;;;;;;2.32;100.00;97989.22;5026511;28;20048;-64
2024/02/13 03:38:48;;;;;;;117.30;20.30;;;;;;;2.24;100.00;97989.81;5026012;28;20060;-62
2024/02/13 03:41:14;;;;;;;64.35;17.63;;;;;;;2.23;100.00;97998.34;5027811;28;20117;-63
2024/02/13 03:43:43;;;;;;;65.47;17.38;;;;;;;2.18;100.00;97996.50;5027933;28;20162;-60
2024/02/13 03:46:09;;;;;;;89.28;18.52;;;;;;;2.15;100.00;97998.97;5027039;28;20393;-61
2024/02/13 03:48:34;;;;;;;66.03;17.50;;;;;;;2.07;100.00;97997.88;5008445;28;20024;-63
2024/02/13 03:51:00;;;;;;;58.13;18.95;;;;;;;2.06;100.00;98006.41;5027088;28;20049;-63
2024/02/13 03:53:26;;;;;;;81.43;17.77;;;;;;;1.98;100.00;98008.72;5010086;28;20461;-63
2024/02/13 03:55:51;;;;;;;90.22;20.00;;;;;;;1.96;100.00;98002.66;5025592;28;20065;-64
2024/02/13 03:58:16;;;;;;;82.20;17.63;;;;;;;1.94;100.00;98007.75;5028646;28;20422;-62
2024/02/13 04:00:42;;;;;;;81.97;19.48;;;;;;;1.84;100.00;98005.72;5016371;28;20475;-60
2024/02/13 04:03:09;;;;;;;60.40;18.25;;;;;;;1.80;100.00;98011.59;5026548;28;20039;-62
2024/02/13 04:05:37;;;;;;;74.95;18.02;;;;;;;1.71;100.00;98012.19;5024838;28;20041;-63
2024/02/13 04:08:04;;;;;;;59.72;17.85;;;;;;;1.67;100.00;98016.31;5027323;28;20067;-61
2024/02/13 04:10:29;;;;;;;75.80;19.23;;;;;;;1.66;100.00;98016.25;5024612;28;20512;-63
2024/02/13 04:12:55;;;;;;;121.30;20.40;;;;;;;1.67;100.00;98023.16;5025245;28;20028;-60
2024/02/13 04:15:20;;;;;;;64.72;18.20;;;;;;;1.66;100.00;98024.84;5010588;28;20391;-63
2024/02/13 04:17:50;;;;;;;98.30;19.98;;;;;;;1.67;100.00;98018.03;5026231;28;20029;-63
2024/02/13 04:20:15;;;;;;;95.35;19.00;;;;;;;1.72;100.00;98020.72;5023579;28;20029;-61
2024/02/13 04:22:42;;;;;;;72.50;18.13;;;;;;;1.71;100.00;98031.81;5024497;28;20032;-61
2024/02/13 04:25:08;;;;;;;61.70;16.83;;;;;;;1.75;100.00;98041.34;5025813;28;20028;-63
2024/02/13 04:27:34;;;;;;;85.60;16.33;;;;;;;1.72;100.00;98043.78;5026867;28;20320;-60
2024/02/13 04:29:59;;;;;;;91.22;17.85;;;;;;;1.72;100.00;98046.38;5026731;28;20085;-62
2024/02/13 04:32:24;;;;;;;79.43;18.30;;;;;;;1.67;100.00;98043.66;5027518;28;20036;-62
2024/02/13 04:34:50;;;;;;;80.70;17.52;;;;;;;1.60;100.00;98055.38;5028351;28;20313;-61
2024/02/13 04:37:15;;;;;;;75.65;18.70;;;;;;;1.46;100.00;98059.19;5026430;28;20540;-61
2024/02/13 04:39:41;;;;;;;80.10;17.38;;;;;;;1.42;100.00;98053.94;5028420;28;20052;-63
2024/02/13 04:42:06;;;;;;;96.70;17.80;;;;;;;1.39;100.00;98056.44;5024204;28;20053;-64
2024/02/13 04:44:31;;;;;;;100.75;14.82;;;;;;;1.38;100.00;98056.38;5024677;28;20028;-62
2024/02/13 04:46:57;;;;;;;145.68;19.98;;;;;;;1.44;100.00;98048.88;5023732;28;20131;-64
2024/02/13 04:49:22;;;;;;;86.60;16.23;;;;;;;1.33;100.00;98055.34;5006835;28;20157;-63
2024/02/13 04:51:48;;;;;;;101.82;19.52;;;;;;;1.25;100.00;98060.19;5026863;28;20075;-64
2024/02/13 04:54:13;;;;;;;91.47;17.25;;;;;;;1.17;100.00;98063.38;5027350;28;20021;-63
2024/02/13 04:56:40;;;;;;;76.45;16.88;;;;;;;1.14;100.00;98065.81;5029185;28;20060;-62
2024/02/13 04:59:07;;;;;;;71.28;18.25;;;;;;;1.06;100.00;98068.91;5026132;28;20021;-64
2024/02/13 05:01:39;;;;;;;102.93;18.52;;;;;;;1.07;100.00;98071.53;5024559;28;20091;-64
2024/02/13 05:09:23;;;;;;;73.88;14.93;;;;;;;1.14;100.00;98067.50;5028036;28;20460;-61
2024/02/13 05:11:49;;;;;;;126.47;19.20;;;;;;;1.15;100.00;98070.09;5027016;28;20041;-63
2024/02/13 05:14:14;;;;;;;63.88;15.20;;;;;;;1.07;100.00;98068.09;5026601;28;20037;-60
2024/02/13 05:16:41;;;;;;;62.85;14.45;;;;;;;1.02;100.00;98073.06;5024899;28;20037;-63
2024/02/13 05:19:06;;;;;;;80.70;15.52;;;;;;;0.96;100.00;98078.81;5024330;28;20580;-64
2024/02/13 05:21:34;;;;;;;60.40;14.70;;;;;;;0.92;100.00;98086.34;5025816;28;20517;-63
2024/02/13 05:24:00;;;;;;;93.35;15.95;;;;;;;0.84;100.00;98089.50;5025856;28;20030;-63
2024/02/13 05:26:25;;;;;;;76.68;16.30;;;;;;;0.78;100.00;98097.81;5027143;28;20036;-63
2024/02/13 05:28:51;;;;;;;73.65;15.88;;;;;;;0.74;100.00;98095.09;5025769;28;20140;-62
2024/02/13 05:31:17;;;;;;;61.67;15.90;;;;;;;0.77;100.00;98092.63;5025517;28;20133;-63
2024/02/13 05:33:44;;;;;;;115.57;20.95;;;;;;;0.74;100.00;98098.53;5029227;28;20037;-64
2024/02/13 05:36:09;;;;;;;64.75;17.17;;;;;;;0.64;100.00;98107.53;5029620;28;20564;-64
2024/02/13 05:38:39;;;;;;;75.80;17.80;;;;;;;0.67;100.00;98103.34;5027723;28;20021;-61
2024/02/13 05:41:05;;;;;;;68.97;15.20;;;;;;;0.65;100.00;98108.41;5027122;28;20215;-61
2024/02/13 05:43:30;;;;;;;73.43;29.77;;;;;;;0.82;100.00;98109.03;5030123;28;20491;-61
2024/02/13 05:45:56;;;;;;;121.35;17.35;;;;;;;0.76;100.00;98119.94;5020215;28;20491;-60
2024/02/13 05:48:22;;;;;;;72.65;14.80;;;;;;;0.76;100.00;98113.94;5030849;28;20496;-61
2024/02/13 05:50:50;;;;;;;76.65;15.32;;;;;;;0.74;100.00;98116.44;5030141;28;20052;-63
2024/02/13 05:53:15;;;;;;;91.55;16.45;;;;;;;0.61;100.00;98117.69;5029482;28;20373;-62
2024/02/13 05:55:41;;;;;;;62.58;15.68;;;;;;;0.60;100.00;98127.84;5029413;28;20479;-63
2024/02/13 05:58:06;;;;;;;62.85;15.63;;;;;;;0.60;100.00;98127.84;5030825;28;20437;-64
2024/02/13 06:00:31;;;;;;;65.25;19.70;;;;;;;0.63;100.00;98127.97;5031728;28;20029;-64
2024/02/13 06:03:00;;;;;;;88.15;22.08;;;;;;;0.58;100.00;98127.78;5029429;28;20036;-62
2024/02/13 06:05:26;;;;;;;63.20;16.00;;;;;;;0.64;100.00;98128.00;5030110;28;20528;-63
2024/02/13 06:07:52;;;;;;;84.80;17.65;;;;;;;0.72;100.00;98135.13;5029296;28;20483;-65
2024/02/13 06:10:17;;;;;;;62.15;16.52;;;;;;;0.66;100.00;98140.03;5029386;28;20432;-61
2024/02/13 06:12:43;;;;;;;84.30;17.15;;;;;;;0.63;100.00;98138.22;5030360;28;20048;-61
2024/02/13 06:15:09;;;;;;;67.40;15.35;;;;;;;0.54;100.00;98140.41;5026715;28;20123;-64
2024/02/13 06:17:38;;;;;;;67.85;18.42;;;;;;;0.50;100.00;98147.09;5030657;28;20021;-60
2024/02/13 06:20:07;;;;;;;169.68;29.90;;;;;;;0.72;100.00;98147.94;5024823;28;20040;-60
2024/02/13 06:22:36;;;;;;;104.63;26.27;;;;;;;1.09;100.00;98157.00;5018797;28;20056;-62
2024/02/13 06:25:04;;;;;;;110.03;24.80;;;;;;;0.87;100.00;98151.09;5026327;28;20037;-61
2024/02/13 06:27:33;;;;;;;76.30;17.27;;;;;;;0.55;100.00;98157.53;5025937;28;20407;-59
2024/02/13 06:29:58;;;;;;;107.78;19.27;;;;;;;0.43;100.00;98163.00;5029957;28;20037;-60
2024/02/13 06:32:27;;;;;;;88.30;17.48;;;;;;;0.34;100.00;98169.50;5027232;28;20072;-59
2024/02/13 06:34:53;;;;;;;103.65;17.55;;;;;;;0.27;100.00;98167.53;5028952;28;20086;-60
2024/02/13 06:37:21;;;;;;;67.72;15.77;;;;;;;0.28;100.00;98169.28;5029195;28;20524;-62
2024/02/13 06:39:48;;;;;;;90.57;17.42;;;;;;;0.27;100.00;98175.22;5027889;28;20381;-61
2024/02/13 06:42:13;;;;;;;63.55;15.95;;;;;;;0.33;100.00;98172.03;5027069;28;20316;-60
2024/02/13 06:44:39;;;;;;;57.05;13.80;;;;;;;0.44;100.00;98181.00;5028513;28;20063;-61
2024/02/13 06:47:08;;;;;;;91.93;18.00;;;;;;;0.57;100.00;98187.47;5027116;28;20037;-62
2024/02/13 06:49:37;;;;;;;87.45;17.13;;;;;;;0.70;100.00;98188.81;5003726;28;20493;-59
2024/02/13 06:52:06;;;;;;;116.03;22.80;;;;;;;1.02;100.00;98196.00;5025757;28;20045;-61
2024/02/13 06:54:31;;;;;;;78.40;19.05;;;;;;;1.20;100.00;98203.53;5029660;28;20091;-58
2024/02/13 06:56:57;;;;;;;77.00;20.05;;;;;;;1.19;100.00;98201.78;5028209;28;20465;-61
2024/02/13 06:59:23;;;;;;;103.10;20.88;;;;;;;1.19;100.00;98206.91;5029562;28;20027;-59
2024/02/13 07:01:48;;;;;;;87.43;28.23;;;;;;;0.78;100.00;98218.16;5026604;28;20162;-62
2024/02/13 07:04:14;;;;;;;69.97;14.23;;;;;;;0.55;100.00;98218.97;5025460;28;20021;-60
2024/02/13 07:06:39;;;;;;;92.45;13.85;;;;;;;0.54;100.00;98217.19;5028422;28;20483;-61
2024/02/13 07:09:05;;;;;;;98.80;14.10;;;;;;;0.48;100.00;98218.69;5026833;28;20040;-61
2024/02/13 07:11:31;;;;;;;67.95;15.00;;;;;;;0.74;100.00;98220.56;5026378;28;20041;-61
2024/02/13 07:13:57;;;;;;;103.68;16.92;;;;;;;0.81;100.00;98224.25;5025208;28;20025;-64
2024/02/13 07:16:22;;;;;;;68.10;14.18;;;;;;;0.90;100.00;98228.00;5029359;28;20044;-61
2024/02/13 07:18:47;;;;;;;77.80;17.40;;;;;;;1.02;100.00;98230.19;5025511;28;20018;-61
2024/02/13 07:21:13;;;;;;;66.97;15.95;;;;;;;1.26;100.00;98238.75;5025123;28;20037;-62
2024/02/13 07:23:38;;;;;;;80.32;18.15;;;;;;;1.44;100.00;98241.13;5029023;28;20026;-59
2024/02/13 07:26:04;;;;;;;95.68;18.48;;;;;;;1.63;100.00;98242.66;5026099;28;20425;-61
2024/02/13 07:28:29;;;;;;;72.07;15.77;;;;;;;1.62;100.00;98248.63;5027182;28;20048;-61
2024/02/13 07:30:54;;;;;;;94.93;18.50;;;;;;;1.77;100.00;98243.19;5025962;28;20539;-60
2024/02/13 07:33:20;;;;;;;74.15;15.52;;;;;;;2.03;100.00;98252.59;5026557;28;20022;-62
2024/02/13 07:35:46;;;;;;;74.20;16.95;;;;;;;1.99;100.00;98250.75;5026289;28;20025;-58
2024/02/13 07:38:11;;;;;;;60.03;15.30;;;;;;;2.21;100.00;98245.56;5024293;28;20073;-60
2024/02/13 07:40:36;;;;;;;70.35;17.48;;;;;;;2.36;100.00;98246.00;5025610;28;20313;-60
2024/02/13 07:43:02;;;;;;;102.78;20.00;;;;;;;2.19;100.00;98244.63;5025058;28;20021;-62
2024/02/13 07:45:27;;;;;;;60.22;16.27;;;;;;;2.16;100.00;98251.34;5028610;28;20033;-60
2024/02/13 07:47:53;;;;;;;87.05;18.30;;;;;;;2.34;100.00;98251.97;5025904;28;20083;-61
2024/02/13 07:50:19;;;;;;;64.05;18.02;;;;;;;2.59;100.00;98259.59;5024890;28;20101;-60
2024/02/13 07:52:45;;;;;;;71.90;16.75;;;;;;;2.59;100.00;98267.31;5027008;28;20013;-62
2024/02/13 07:55:11;;;;;;;90.82;23.17;;;;;;;2.90;100.00;98267.44;5024511;28;20036;-61
2024/02/13 07:57:37;;;;;;;64.18;17.23;;;;;;;2.67;100.00;98267.59;5026694;28;20500;-61
2024/02/13 08:00:03;;;;;;;96.65;20.33;;;;;;;2.80;100.00;98266.28;5027145;28;20122;-60
2024/02/13 08:02:29;;;;;;;79.65;18.65;;;;;;;2.99;100.00;98267.72;5024262;28;20033;-61
2024/02/13 08:04:55;;;;;;;76.13;18.38;;;;;;;2.94;100.00;98271.88;5025787;28;20060;-59
2024/02/13 08:07:21;;;;;;;68.60;17.63;;;;;;;3.22;100.00;98268.44;5025481;28;20090;-63
2024/02/13 08:09:46;;;;;;;90.47;21.83;;;;;;;2.99;100.00;98270.31;5025308;28;20497;-59
2024/02/13 08:12:12;;;;;;;60.13;18.95;;;;;;;3.15;100.00;98263.94;5025198;28;20132;-62
2024/02/13 08:14:38;;;;;;;60.42;16.88;;;;;;;3.18;100.00;98265.72;5011178;28;20021;-60
2024/02/13 08:17:08;;;;;;;73.32;17.40;;;;;;;3.60;100.00;98265.25;5025254;28;20047;-59
2024/02/13 08:19:34;;;;;;;71.90;17.63;;;;;;;3.80;100.00;98271.81;5025234;28;20116;-60
2024/02/13 08:22:00;;;;;;;97.65;21.60;;;;;;;3.51;100.00;98281.31;5025651;28;20033;-60
2024/02/13 08:24:29;;;;;;;61.85;17.02;;;;;;;3.41;100.00;98273.28;5026088;28;20536;-63
2024/02/13 08:26:55;;;;;;;74.90;19.75;;;;;;;3.84;100.00;98274.53;5024068;28;20579;-61
2024/02/13 08:29:20;;;;;;;99.70;30.05;;;;;;;3.94;100.00;98273.09;5024000;28;20590;-60
2024/02/13 08:31:46;;;;;;;75.57;20.45;;;;;;;4.23;100.00;98269.56;5025081;28;20049;-59
2024/02/13 08:34:11;;;;;;;79.57;19.63;;;;;;;4.80;100.00;98280.44;5025146;28;20017;-62
2024/02/13 08:36:38;;;;;;;113.35;24.63;;;;;;;4.92;100.00;98285.88;5023765;28;20038;-61
2024/02/13 08:39:04;;;;;;;98.38;24.05;;;;;;;4.77;100.00;98276.06;5007887;28;20594;-61
2024/02/13 08:41:31;;;;;;;79.90;23.90;;;;;;;5.11;100.00;98275.13;5026302;28;20045;-62
2024/02/13 08:43:58;;;;;;;128.60;38.72;;;;;;;5.40;100.00;98275.78;5024086;28;20575;-59
2024/02/13 08:46:23;;;;;;;91.55;23.63;;;;;;;5.37;100.00;98278.28;5027781;28;20091;-60
2024/02/13 08:48:50;;;;;;;97.00;29.00;;;;;;;5.12;100.00;98292.34;5024327;28;20017;-60
2024/02/13 08:51:16;;;;;;;73.43;24.52;;;;;;;5.09;100.00;98290.56;5024988;28;20044;-61
2024/02/13 08:53:41;;;;;;;83.90;24.50;;;;;;;5.40;100.00;98285.22;5024834;28;20021;-59
2024/02/13 08:56:07;;;;;;;105.03;28.13;;;;;;;5.45;100.00;98288.78;5024448;28;20296;-59
2024/02/13 08:58:32;;;;;;;74.35;37.55;;;;;;;5.47;100.00;98285.38;5026507;28;20456;-62
2024/02/13 09:00:57;;;;;;;98.97;31.83;;;;;;;5.48;100.00;98281.09;5023013;28;20087;-62
2024/02/13 09:03:23;;;;;;;100.28;38.53;;;;;;;5.43;100.00;98287.88;5020843;28;20108;-60
2024/02/13 09:05:48;;;;;;;82.75;28.13;;;;;;;5.53;100.00;98294.13;5027952;28;20033;-61
2024/02/13 09:08:14;;;;;;;101.50;29.15;;;;;;;5.86;100.00;98304.28;5028411;28;20111;-61
2024/02/13 09:10:41;;;;;;;80.43;24.48;;;;;;;5.55;100.00;98297.59;5027193;28;20438;-61
2024/02/13 09:13:06;;;;;;;98.85;34.40;;;;;;;5.74;100.00;98298.84;5028367;28;20040;-62
2024/02/13 09:15:32;;;;;;;67.13;26.05;;;;;;;5.76;100.00;98301.47;5028561;28;20037;-62
2024/02/13 09:17:57;;;;;;;102.13;29.23;;;;;;;5.52;100.00;98308.72;5027151;28;20025;-60
2024/02/13 09:20:22;;;;;;;71.75;39.63;;;;;;;5.84;100.00;98308.56;5028387;28;20040;-61
2024/02/13 09:22:49;;;;;;;108.18;94.38;;;;;;;5.19;100.00;98313.16;5031714;28;20064;-61
2024/02/13 09:25:16;;;;;;;151.80;102.20;;;;;;;5.45;100.00;98312.88;5026642;28;20021;-62
2024/02/13 09:27:43;;;;;;;87.18;67.30;;;;;;;5.36;100.00;98306.63;5028274;28;20075;-61
2024/02/13 09:30:10;;;;;;;118.85;53.95;;;;;;;5.51;100.00;98311.25;5028042;28;20488;-61
2024/02/13 09:32:36;;;;;;;64.32;34.90;;;;;;;5.62;100.00;98311.50;5026753;28;20382;-61
2024/02/13 09:35:05;;;;;;;97.35;29.23;;;;;;;5.79;100.00;98314.47;5028250;28;20589;-61
2024/02/13 09:37:40;;;;;;;84.38;31.02;;;;;;;5.55;100.00;98306.22;5029672;28;20107;-58
2024/02/13 09:40:15;;;;;;;98.60;29.30;;;;;;;5.53;100.00;98312.19;5027334;28;20443;-59
2024/02/13 09:42:44;;;;;;;101.97;30.80;;;;;;;5.76;100.00;98311.81;5029150;28;20346;-61
2024/02/13 09:45:13;;;;;;;118.32;43.13;;;;;;;6.10;100.00;98310.84;5026537;28;20120;-60
2024/02/13 09:47:38;;;;;;;210.73;173.40;;;;;;;6.19;100.00;98307.53;5010566;28;20057;-61
2024/02/13 09:50:12;;;;;;;107.32;35.30;;;;;;;5.95;100.00;98308.78;5028364;28;20467;-62
2024/02/13 09:52:47;;;;;;;164.73;147.68;;;;;;;6.67;100.00;98319.59;5012132;28;20492;-62
2024/02/13 09:55:14;;;;;;;111.53;30.92;;;;;;;6.44;100.00;98320.94;5026586;28;20026;-61
2024/02/13 09:57:41;;;;;;;103.75;64.85;;;;;;;7.00;100.00;98315.84;5029510;28;20397;-62
2024/02/13 10:00:08;;;;;;;113.07;51.67;;;;;;;6.69;100.00;98318.78;5026526;28;20029;-60
2024/02/13 10:02:38;;;;;;;137.68;90.45;;;;;;;5.33;100.00;98313.47;5027411;28;20145;-59
2024/02/13 10:05:07;;;;;;;148.50;87.50;;;;;;;5.45;100.00;98323.19;5026317;28;20034;-62
2024/02/13 10:07:34;;;;;;;251.88;218.02;;;;;;;5.21;100.00;98329.50;5028511;28;20062;-59
2024/02/13 10:10:00;;;;;;;122.57;75.07;;;;;;;5.30;100.00;98321.13;5029898;28;20112;-59
2024/02/13 10:12:25;;;;;;;137.10;103.50;;;;;;;5.63;100.00;98314.13;5027589;28;20203;-61
2024/02/13 10:15:00;;;;;;;135.55;78.63;;;;;;;5.87;100.00;98323.25;5028189;28;20101;-62
2024/02/13 10:17:26;;;;;;;142.13;112.38;;;;;;;6.50;100.00;98323.63;5028900;28;20481;-60
2024/02/13 10:19:52;;;;;;;154.93;101.10;;;;;;;6.30;100.00;98327.53;5029137;28;20041;-61
2024/02/13 10:22:18;;;;;;;174.75;105.78;;;;;;;6.12;100.00;98316.00;5031449;28;20143;-61
2024/02/13 10:24:53;;;;;;;129.85;84.97;;;;;;;6.02;100.00;98320.09;5023356;28;20029;-60
2024/02/13 10:27:19;;;;;;;157.27;71.97;;;;;;;5.70;100.00;98318.59;5031841;28;20044;-60
2024/02/13 10:29:45;;;;;;;122.45;91.60;;;;;;;5.56;100.00;98313.13;5029667;28;20041;-59
2024/02/13 10:32:10;;;;;;;82.97;24.65;;;;;;;6.74;100.00;98312.00;5031161;28;20123;-60
2024/02/13 10:34:37;;;;;;;89.00;29.42;;;;;;;7.27;100.00;98306.75;5032537;28;20012;-61
2024/02/13 10:37:07;;;;;;;44.17;16.73;;;;;;;7.67;100.00;98303.88;5030009;28;20037;-58
2024/02/13 10:39:34;;;;;;;61.55;25.25;;;;;;;7.45;100.00;98297.56;5030421;28;20036;-61
2024/02/13 10:42:02;;;;;;;55.65;17.95;;;;;;;7.18;100.00;98292.00;5031073;28;20556;-60
2024/02/13 10:44:28;;;;;;;64.45;23.35;;;;;;;8.27;100.00;98287.31;5033098;28;20084;-61
2024/02/13 10:46:56;;;;;;;78.05;21.52;;;;;;;8.60;100.00;98285.97;5029969;28;20032;-62
2024/02/13 10:49:33;;;;;;;68.53;21.00;;;;;;;8.62;100.00;98279.06;5030617;28;20998;-62
2024/02/13 10:51:59;;;;;;;64.80;16.55;;;;;;;8.58;100.00;98278.16;5029949;28;20280;-60
2024/02/13 10:54:25;;;;;;;53.65;16.30;;;;;;;8.60;100.00;98270.41;5032064;28;20531;-62
2024/02/13 10:56:52;;;;;;;60.10;16.17;;;;;;;8.57;100.00;98279.03;5031027;28;20036;-60
2024/02/13 10:59:21;;;;;;;114.57;23.40;;;;;;;8.64;100.00;98269.56;5029419;28;20361;-62
2024/02/13 11:01:48;;;;;;;50.45;16.80;;;;;;;8.75;100.00;98267.06;5030509;28;20033;-63
2024/02/13 11:04:16;;;;;;;71.93;21.73;;;;;;;8.47;100.00;98272.84;5029730;28;20029;-62
2024/02/13 11:06:41;;;;;;;63.88;18.02;;;;;;;8.52;100.00;98269.41;5028661;28;20467;-63
2024/02/13 11:09:12;;;;;;;69.93;18.85;;;;;;;8.96;100.00;98273.28;5030042;28;20040;-61
2024/02/13 11:11:41;;;;;;;143.85;22.63;;;;;;;8.94;100.00;98264.63;5027468;28;20041;-60
2024/02/13 11:14:20;;;;;;;55.97;17.52;;;;;;;8.44;100.00;98265.06;5029744;28;20132;-60
2024/02/13 11:16:56;;;;;;;58.40;15.25;;;;;;;8.30;100.00;98271.81;5032101;28;20037;-60